Time;durP1;ratioP1;P1;durP2;ratioP2;P2;SDS_P1;SDS_P2;PMS_P1;PMS_P2;Temp;Humidity;BMP_temperature;BMP_pressure;BME280_temperature;BME280_humidity;BME280_pressure;Samples;Min_cycle;Max_cycle;Signal;HPM_P1;HPM_P2
2021/04/03 00:02:54;;;;;;;5.97;4.50;;;;;;;;;;5075003;28;21167;-72
2021/04/03 00:05:59;;;;;;;6.07;4.73;;;;;;;;;;5075052;28;20546;-72
2021/04/03 00:09:03;;;;;;;5.83;4.10;;;;;;;;;;5074619;28;20593;-72
2021/04/03 00:12:09;;;;;;;6.43;4.40;;;;;;;;;;5074604;28;20625;-72
2021/04/03 00:15:13;;;;;;;6.53;4.73;;;;;;;;;;5042716;28;20877;-72
2021/04/03 00:18:18;;;;;;;7.63;5.20;;;;;;;;;;5054568;28;20543;-72
2021/04/03 00:21:22;;;;;;;7.67;5.27;;;;;;;;;;5054656;28;20540;-72
2021/04/03 00:24:27;;;;;;;5.93;4.60;;;;;;;;;;5048632;28;20625;-72
2021/04/03 00:27:31;;;;;;;8.63;5.00;;;;;;;;;;5061919;28;20625;-72
2021/04/03 00:30:36;;;;;;;6.93;4.73;;;;;;;;;;5074289;28;20627;-72
2021/04/03 00:33:40;;;;;;;6.50;4.57;;;;;;;;;;5074479;28;20617;-72
2021/04/03 00:36:44;;;;;;;6.80;4.50;;;;;;;;;;5074122;28;20604;-72
2021/04/03 00:39:52;;;;;;;6.13;4.47;;;;;;;;;;5054359;28;20571;-72
2021/04/03 00:42:58;;;;;;;6.00;4.63;;;;;;;;;;5041815;28;20622;-72
2021/04/03 00:46:03;;;;;;;5.57;4.13;;;;;;;;;;5070719;28;20956;-72
2021/04/03 00:49:08;;;;;;;5.67;4.53;;;;;;;;;;5061692;28;20550;-72
2021/04/03 00:52:13;;;;;;;6.60;4.30;;;;;;;;;;5061468;28;20648;-72
2021/04/03 00:55:18;;;;;;;7.63;4.50;;;;;;;;;;5060835;28;21167;-71
2021/04/03 00:58:23;;;;;;;6.57;4.33;;;;;;;;;;5060209;28;20586;-72
2021/04/03 01:01:27;;;;;;;11.10;4.27;;;;;;;;;;5062004;28;20518;-71
2021/04/03 01:04:33;;;;;;;11.47;4.90;;;;;;;;;;5061960;28;20546;-71
2021/04/03 01:07:40;;;;;;;8.33;5.00;;;;;;;;;;5073886;28;20622;-72
2021/04/03 01:10:52;;;;;;;6.73;4.67;;;;;;;;;;5045824;28;21142;-72
2021/04/03 01:14:12;;;;;;;6.23;4.13;;;;;;;;;;5061433;28;20543;-72
2021/04/03 01:17:38;;;;;;;10.23;4.97;;;;;;;;;;5060862;28;20597;-72
2021/04/03 01:20:46;;;;;;;7.83;4.70;;;;;;;;;;5060123;28;20618;-72
2021/04/03 01:24:20;;;;;;;6.47;3.63;;;;;;;;;;5061004;28;21182;-72
2021/04/03 01:27:26;;;;;;;7.00;4.30;;;;;;;;;;5042956;28;20675;-71
2021/04/03 01:30:31;;;;;;;6.17;3.60;;;;;;;;;;5073851;28;20534;-71
2021/04/03 01:33:45;;;;;;;8.20;3.60;;;;;;;;;;5060816;28;20653;-71
2021/04/03 01:36:52;;;;;;;8.33;3.60;;;;;;;;;;5049396;28;20554;-72
2021/04/03 01:40:00;;;;;;;9.20;4.13;;;;;;;;;;5053048;28;20582;-71
2021/04/03 01:43:15;;;;;;;11.47;3.37;;;;;;;;;;5053084;28;20630;-71
2021/04/03 01:46:23;;;;;;;7.00;3.10;;;;;;;;;;5041157;28;20933;-71
2021/04/03 01:49:30;;;;;;;10.47;3.73;;;;;;;;;;5072710;28;20582;-71
2021/04/03 01:52:36;;;;;;;10.53;3.87;;;;;;;;;;5060546;28;20613;-72
2021/04/03 01:55:41;;;;;;;8.90;3.47;;;;;;;;;;5061523;28;20538;-71
2021/04/03 01:58:46;;;;;;;9.97;4.27;;;;;;;;;;5060950;28;20882;-71
2021/04/03 02:01:55;;;;;;;6.23;3.90;;;;;;;;;;5044048;28;20642;-71
2021/04/03 02:05:00;;;;;;;9.43;3.90;;;;;;;;;;5040735;28;20622;-71
2021/04/03 02:08:07;;;;;;;9.13;4.00;;;;;;;;;;5029841;28;20551;-71
2021/04/03 02:11:15;;;;;;;7.23;3.60;;;;;;;;;;5055823;28;20627;-72
2021/04/03 02:14:24;;;;;;;8.13;4.37;;;;;;;;;;5061118;28;20889;-72
2021/04/03 02:17:29;;;;;;;11.40;4.00;;;;;;;;;;5041084;28;20931;-72
2021/04/03 02:20:36;;;;;;;8.77;4.10;;;;;;;;;;5069415;28;20621;-72
2021/04/03 02:23:41;;;;;;;7.50;3.30;;;;;;;;;;5072392;28;20653;-72
2021/04/03 02:26:47;;;;;;;8.53;4.13;;;;;;;;;;5061657;28;20617;-72
2021/04/03 02:29:51;;;;;;;5.87;3.27;;;;;;;;;;5076604;28;21182;-72
2021/04/03 02:32:57;;;;;;;8.10;4.27;;;;;;;;;;5076813;28;20617;-71
2021/04/03 02:36:04;;;;;;;6.13;3.63;;;;;;;;;;5064242;28;20937;-72
2021/04/03 02:39:10;;;;;;;10.27;3.77;;;;;;;;;;5064325;28;21076;-72
2021/04/03 02:42:21;;;;;;;7.63;3.87;;;;;;;;;;5063874;28;20645;-71
2021/04/03 02:45:52;;;;;;;7.53;3.83;;;;;;;;;;5058038;28;20594;-72
2021/04/03 02:49:02;;;;;;;6.73;3.53;;;;;;;;;;5064178;28;20541;-72
2021/04/03 02:52:15;;;;;;;14.63;6.53;;;;;;;;;;5076701;28;20965;-72
2021/04/03 02:55:27;;;;;;;8.40;4.53;;;;;;;;;;5076181;28;20589;-72
2021/04/03 02:58:35;;;;;;;10.57;3.83;;;;;;;;;;5075279;28;20617;-72
2021/04/03 03:01:41;;;;;;;9.70;4.10;;;;;;;;;;5063883;28;20535;-72
2021/04/03 03:04:47;;;;;;;8.77;4.43;;;;;;;;;;5051890;28;20597;-72
2021/04/03 03:07:53;;;;;;;8.67;4.23;;;;;;;;;;5076394;28;20538;-72
2021/04/03 03:11:00;;;;;;;6.63;3.47;;;;;;;;;;5032409;28;20598;-72
2021/04/03 03:14:05;;;;;;;6.20;3.67;;;;;;;;;;5073961;28;20965;-72
2021/04/03 03:17:13;;;;;;;7.17;3.93;;;;;;;;;;5052120;28;20538;-72
2021/04/03 03:20:20;;;;;;;7.93;4.63;;;;;;;;;;5063730;28;20593;-72
2021/04/03 03:23:26;;;;;;;7.07;4.30;;;;;;;;;;5054483;28;20638;-72
2021/04/03 03:26:33;;;;;;;9.00;3.63;;;;;;;;;;5043728;28;21081;-72
2021/04/03 03:29:40;;;;;;;7.37;4.00;;;;;;;;;;5043969;28;20531;-72
2021/04/03 03:32:45;;;;;;;6.90;3.70;;;;;;;;;;5067485;28;21238;-72
2021/04/03 03:35:50;;;;;;;5.30;3.47;;;;;;;;;;5062715;28;20995;-72
2021/04/03 03:38:55;;;;;;;7.00;4.07;;;;;;;;;;5074887;28;20538;-72
2021/04/03 03:42:01;;;;;;;6.73;3.83;;;;;;;;;;5067030;28;20629;-72
2021/04/03 03:45:10;;;;;;;8.30;4.33;;;;;;;;;;5075438;28;20534;-72
2021/04/03 03:48:15;;;;;;;7.17;3.90;;;;;;;;;;5062686;28;20609;-72
2021/04/03 03:51:20;;;;;;;10.17;3.80;;;;;;;;;;5043425;28;20550;-72
2021/04/03 03:54:34;;;;;;;8.57;3.90;;;;;;;;;;5042825;28;20946;-71
2021/04/03 03:57:39;;;;;;;9.57;3.80;;;;;;;;;;5050996;28;21155;-72
2021/04/03 04:00:46;;;;;;;5.83;3.80;;;;;;;;;;5062471;28;20626;-72
2021/04/03 04:03:53;;;;;;;6.37;3.47;;;;;;;;;;5042923;28;20551;-72
2021/04/03 04:07:00;;;;;;;7.53;3.23;;;;;;;;;;5073012;28;21151;-72
2021/04/03 04:10:09;;;;;;;5.57;3.50;;;;;;;;;;5062686;28;20539;-72
2021/04/03 04:13:18;;;;;;;11.50;3.30;;;;;;;;;;5042466;28;20619;-72
2021/04/03 04:16:23;;;;;;;5.17;3.17;;;;;;;;;;5042130;28;20598;-72
2021/04/03 04:19:28;;;;;;;6.87;3.40;;;;;;;;;;5064391;28;21198;-72
2021/04/03 04:22:35;;;;;;;5.70;3.50;;;;;;;;;;5061960;28;20610;-71
2021/04/03 04:25:40;;;;;;;5.97;3.07;;;;;;;;;;5074060;28;20626;-72
2021/04/03 04:28:47;;;;;;;10.07;3.63;;;;;;;;;;5061912;28;21158;-72
2021/04/03 04:31:54;;;;;;;12.20;3.87;;;;;;;;;;5074073;28;20618;-73
2021/04/03 04:35:03;;;;;;;6.93;3.00;;;;;;;;;;5062297;28;21092;-72
2021/04/03 04:38:08;;;;;;;4.57;3.00;;;;;;;;;;5061730;28;20586;-72
2021/04/03 04:41:18;;;;;;;7.67;3.33;;;;;;;;;;5054162;28;20915;-72
2021/04/03 04:44:22;;;;;;;8.10;4.27;;;;;;;;;;5050757;28;20625;-72
2021/04/03 04:47:28;;;;;;;5.20;2.77;;;;;;;;;;5041846;28;20543;-72
2021/04/03 04:50:35;;;;;;;8.03;3.10;;;;;;;;;;5041191;28;20551;-72
2021/04/03 04:53:41;;;;;;;7.00;3.10;;;;;;;;;;5054684;28;21008;-72
2021/04/03 04:56:48;;;;;;;7.23;2.93;;;;;;;;;;5058250;28;20593;-72
2021/04/03 04:59:58;;;;;;;3.67;3.00;;;;;;;;;;5051150;28;21072;-72
2021/04/03 05:03:10;;;;;;;6.60;2.97;;;;;;;;;;5073236;28;20641;-72
2021/04/03 05:06:15;;;;;;;10.47;3.23;;;;;;;;;;5097825;22;20700;-73
2021/04/03 05:09:19;;;;;;;7.87;3.00;;;;;;;;;;5075170;28;20580;-73
2021/04/03 05:12:23;;;;;;;6.47;3.37;;;;;;;;;;5092003;28;20620;-73
2021/04/03 05:15:27;;;;;;;5.93;3.00;;;;;;;;;;5073397;28;20945;-73
2021/04/03 05:18:31;;;;;;;8.00;2.97;;;;;;;;;;5041285;28;20551;-73
2021/04/03 05:21:36;;;;;;;8.23;3.53;;;;;;;;;;5067297;28;20630;-73
2021/04/03 05:24:40;;;;;;;4.67;2.83;;;;;;;;;;5091812;28;20585;-73
2021/04/03 05:27:44;;;;;;;6.93;3.43;;;;;;;;;;5093819;28;20884;-73
2021/04/03 05:30:49;;;;;;;4.53;2.63;;;;;;;;;;5086201;28;21148;-73
2021/04/03 05:33:53;;;;;;;4.70;2.60;;;;;;;;;;5058679;28;20622;-73
2021/04/03 05:36:57;;;;;;;11.10;3.40;;;;;;;;;;5073119;28;20623;-73
2021/04/03 05:40:03;;;;;;;7.80;3.23;;;;;;;;;;5061040;28;20593;-73
2021/04/03 05:43:09;;;;;;;8.00;3.43;;;;;;;;;;5090674;28;21221;-73
2021/04/03 05:46:17;;;;;;;9.53;3.97;;;;;;;;;;5048230;28;20597;-77
2021/04/03 05:49:22;;;;;;;8.23;3.93;;;;;;;;;;5081023;28;20592;-73
2021/04/03 05:52:26;;;;;;;7.20;3.23;;;;;;;;;;5077602;28;20632;-73
2021/04/03 05:55:31;;;;;;;6.73;3.33;;;;;;;;;;5093158;28;20549;-73
2021/04/03 05:58:36;;;;;;;16.80;6.93;;;;;;;;;;5040836;28;20524;-73
2021/04/03 06:01:41;;;;;;;10.33;5.40;;;;;;;;;;5040568;28;20621;-73
2021/04/03 06:04:46;;;;;;;4.77;3.13;;;;;;;;;;5056000;28;20546;-73
2021/04/03 06:07:50;;;;;;;5.63;3.80;;;;;;;;;;5079505;28;20530;-73
2021/04/03 06:11:11;;;;;;;7.00;3.33;;;;;;;;;;5079458;28;20874;-73
2021/04/03 06:14:17;;;;;;;9.47;3.37;;;;;;;;;;5099412;28;20569;-73
2021/04/03 06:17:24;;;;;;;6.73;3.50;;;;;;;;;;5069123;28;20609;-73
2021/04/03 06:20:35;;;;;;;9.20;3.60;;;;;;;;;;5079226;28;20593;-73
2021/04/03 06:23:40;;;;;;;7.63;3.70;;;;;;;;;;5058708;28;20628;-73
2021/04/03 06:26:56;;;;;;;6.63;3.63;;;;;;;;;;5091811;28;21153;-73
2021/04/03 06:30:13;;;;;;;7.37;3.77;;;;;;;;;;5095079;28;20593;-73
2021/04/03 06:33:19;;;;;;;11.87;3.37;;;;;;;;;;5057666;28;20641;-73
2021/04/03 06:36:23;;;;;;;6.80;3.97;;;;;;;;;;5087431;28;20612;-73
2021/04/03 06:39:28;;;;;;;8.67;5.93;;;;;;;;;;5100010;28;20596;-73
2021/04/03 06:42:36;;;;;;;4.60;3.23;;;;;;;;;;5059385;28;20645;-73
2021/04/03 06:45:44;;;;;;;5.70;3.53;;;;;;;;;;5062631;28;20918;-73
2021/04/03 06:48:52;;;;;;;7.20;3.47;;;;;;;;;;5089945;28;20616;-73
2021/04/03 06:51:57;;;;;;;6.43;3.40;;;;;;;;;;5099251;28;20618;-73
2021/04/03 06:55:02;;;;;;;5.20;3.20;;;;;;;;;;5084687;28;20612;-73
2021/04/03 06:58:07;;;;;;;6.60;3.60;;;;;;;;;;5085190;28;20584;-73
2021/04/03 07:01:14;;;;;;;5.60;3.10;;;;;;;;;;5087078;28;20592;-72
2021/04/03 07:04:23;;;;;;;4.73;2.83;;;;;;;;;;5053565;28;20616;-73
2021/04/03 07:07:29;;;;;;;7.83;3.20;;;;;;;;;;5067147;28;20629;-73
2021/04/03 07:10:35;;;;;;;6.83;3.30;;;;;;;;;;5079262;28;20183;-73
2021/04/03 07:13:40;;;;;;;7.53;3.40;;;;;;;;;;5079336;28;20647;-74
2021/04/03 07:16:46;;;;;;;7.20;3.43;;;;;;;;;;5063627;28;20183;-73
2021/04/03 07:19:52;;;;;;;5.97;3.70;;;;;;;;;;5075618;28;20657;-73
2021/04/03 07:23:00;;;;;;;6.57;3.07;;;;;;;;;;5076328;28;20547;-73
2021/04/03 07:26:06;;;;;;;6.43;5.13;;;;;;;;;;5063802;28;20195;-74
2021/04/03 07:29:39;;;;;;;10.27;4.40;;;;;;;;;;5075473;28;20562;-73
2021/04/03 07:33:23;;;;;;;6.47;3.17;;;;;;;;;;5075460;28;20220;-73
2021/04/03 07:36:35;;;;;;;6.17;3.20;;;;;;;;;;5075375;28;20183;-73
2021/04/03 07:39:41;;;;;;;5.67;3.43;;;;;;;;;;5075601;28;20188;-73
2021/04/03 07:46:26;;;;;;;5.43;2.90;;;;;;;;;;5770298;23;20235;-86
2021/04/03 07:49:32;;;;;;;6.87;3.27;;;;;;;;;;4891849;29;20209;-86
2021/04/03 07:52:53;;;;;;;5.73;3.10;;;;;;;;;;4907978;29;20193;-86
2021/04/03 07:55:57;;;;;;;7.20;3.03;;;;;;;;;;4937913;29;20690;-86
2021/04/03 07:59:02;;;;;;;6.10;3.10;;;;;;;;;;4908818;29;20212;-85
2021/04/03 08:02:11;;;;;;;4.20;2.47;;;;;;;;;;4922954;23;20245;-84
2021/04/03 08:05:16;;;;;;;6.73;3.00;;;;;;;;;;4898816;29;20177;-85
2021/04/03 08:08:21;;;;;;;6.60;2.83;;;;;;;;;;4898650;29;20205;-84
2021/04/03 08:11:25;;;;;;;5.37;1.83;;;;;;;;;;4920502;29;20220;-84
2021/04/03 08:14:31;;;;;;;4.70;2.50;;;;;;;;;;4918420;29;20177;-84
2021/04/03 08:17:35;;;;;;;4.53;2.90;;;;;;;;;;4907337;29;20181;-84
2021/04/03 08:20:50;;;;;;;3.60;2.37;;;;;;;;;;4918118;29;20224;-84
2021/04/03 08:23:56;;;;;;;5.93;2.80;;;;;;;;;;4917318;29;20173;-84
2021/04/03 08:27:00;;;;;;;6.03;3.00;;;;;;;;;;4906661;29;20193;-84
2021/04/03 08:30:20;;;;;;;5.97;2.97;;;;;;;;;;4908897;29;20201;-85
2021/04/03 08:33:30;;;;;;;4.30;2.70;;;;;;;;;;4883226;29;20558;-84
2021/04/03 08:36:36;;;;;;;3.83;2.40;;;;;;;;;;4929779;29;20181;-84
2021/04/03 08:39:41;;;;;;;7.70;2.70;;;;;;;;;;4908254;29;20556;-84
2021/04/03 08:42:45;;;;;;;6.43;3.33;;;;;;;;;;4917692;29;20557;-85
2021/04/03 08:45:51;;;;;;;8.20;3.33;;;;;;;;;;4888248;29;20197;-84
2021/04/03 08:48:58;;;;;;;7.83;3.90;;;;;;;;;;4888688;29;20198;-84
2021/04/03 08:52:04;;;;;;;3.43;2.50;;;;;;;;;;4917877;29;20213;-84
2021/04/03 08:55:09;;;;;;;5.73;2.50;;;;;;;;;;4906795;29;20545;-84
2021/04/03 08:58:13;;;;;;;5.20;2.73;;;;;;;;;;4892003;29;20201;-84
2021/04/03 09:01:19;;;;;;;6.77;3.20;;;;;;;;;;4898446;29;20233;-84
2021/04/03 09:04:23;;;;;;;8.23;2.60;;;;;;;;;;4888366;29;20540;-84
2021/04/03 09:07:35;;;;;;;5.00;2.63;;;;;;;;;;4898350;29;20668;-84
2021/04/03 09:10:39;;;;;;;7.70;2.53;;;;;;;;;;4878020;29;20217;-84
2021/04/03 09:13:45;;;;;;;6.40;2.70;;;;;;;;;;4899481;29;20185;-84
2021/04/03 09:16:50;;;;;;;7.53;3.20;;;;;;;;;;4904013;29;20193;-84
2021/04/03 09:20:13;;;;;;;8.27;2.57;;;;;;;;;;4906497;29;20540;-84
2021/04/03 09:23:22;;;;;;;4.83;2.87;;;;;;;;;;4907657;29;20216;-84
2021/04/03 09:26:32;;;;;;;4.47;2.47;;;;;;;;;;4915858;29;20691;-84
2021/04/03 09:29:37;;;;;;;6.60;3.13;;;;;;;;;;4898344;29;20189;-83
2021/04/03 09:32:47;;;;;;;8.13;2.80;;;;;;;;;;4906119;29;20177;-84
2021/04/03 09:36:06;;;;;;;6.23;3.10;;;;;;;;;;4905616;29;20198;-85
2021/04/03 09:39:41;;;;;;;8.23;3.43;;;;;;;;;;4897814;29;20193;-85
2021/04/03 09:42:54;;;;;;;7.47;3.40;;;;;;;;;;4921206;29;20208;-85
2021/04/03 09:45:59;;;;;;;6.77;3.07;;;;;;;;;;4920967;29;20193;-85
2021/04/03 09:49:03;;;;;;;5.90;3.23;;;;;;;;;;4905799;29;20189;-85
2021/04/03 09:52:08;;;;;;;4.27;3.00;;;;;;;;;;4916446;29;20216;-85
2021/04/03 09:55:13;;;;;;;14.57;3.80;;;;;;;;;;4905695;29;20562;-85
2021/04/03 09:58:17;;;;;;;7.03;3.57;;;;;;;;;;4916712;29;20635;-85
2021/04/03 10:01:21;;;;;;;8.83;3.30;;;;;;;;;;4907160;29;20232;-85
2021/04/03 10:04:26;;;;;;;5.83;3.23;;;;;;;;;;4898889;29;20190;-85
2021/04/03 10:07:30;;;;;;;8.87;4.87;;;;;;;;;;4888867;29;20198;-85
2021/04/03 10:10:34;;;;;;;6.93;3.07;;;;;;;;;;4898170;29;20221;-85
2021/04/03 10:13:39;;;;;;;7.37;3.40;;;;;;;;;;4886914;29;20637;-85
2021/04/03 10:16:43;;;;;;;5.03;3.00;;;;;;;;;;4898377;29;20178;-85
2021/04/03 10:19:47;;;;;;;14.63;2.93;;;;;;;;;;4887724;29;20526;-84
2021/04/03 10:22:51;;;;;;;4.87;2.57;;;;;;;;;;4869674;29;20550;-84
2021/04/03 10:25:56;;;;;;;6.77;2.83;;;;;;;;;;4880495;29;20194;-85
2021/04/03 10:29:00;;;;;;;8.70;2.73;;;;;;;;;;4867982;29;20190;-85
2021/04/03 10:32:04;;;;;;;12.27;3.13;;;;;;;;;;4890173;29;20218;-86
2021/04/03 10:35:09;;;;;;;6.40;2.87;;;;;;;;;;4889869;29;20194;-86
2021/04/03 10:38:13;;;;;;;7.77;2.77;;;;;;;;;;4889595;29;20190;-85
2021/04/03 10:41:18;;;;;;;5.37;2.90;;;;;;;;;;4890280;29;20213;-85
2021/04/03 10:44:22;;;;;;;4.87;3.00;;;;;;;;;;4891011;29;20194;-85
2021/04/03 10:47:28;;;;;;;10.50;6.33;;;;;;;;;;4918572;29;20316;-86
2021/04/03 10:50:32;;;;;;;3.77;2.17;;;;;;;;;;4910102;29;20216;-86
2021/04/03 10:53:36;;;;;;;9.30;2.10;;;;;;;;;;4921097;29;20181;-85
2021/04/03 10:56:40;;;;;;;23.90;15.73;;;;;;;;;;4909761;29;20185;-85
2021/04/03 10:59:44;;;;;;;7.13;2.37;;;;;;;;;;4909426;29;20188;-85
2021/04/03 11:02:49;;;;;;;8.90;2.13;;;;;;;;;;4920791;29;20216;-84
2021/04/03 11:05:53;;;;;;;3.90;2.00;;;;;;;;;;4910252;29;20640;-84
2021/04/03 11:08:57;;;;;;;3.77;1.70;;;;;;;;;;4908797;29;20637;-85
2021/04/03 11:12:02;;;;;;;5.77;1.57;;;;;;;;;;4923609;29;20220;-85
2021/04/03 11:15:10;;;;;;;3.03;1.70;;;;;;;;;;4911091;29;20208;-84
2021/04/03 11:18:15;;;;;;;3.37;1.67;;;;;;;;;;4921147;29;20200;-84
2021/04/03 11:21:20;;;;;;;4.47;1.60;;;;;;;;;;4910205;29;20568;-84
2021/04/03 11:24:25;;;;;;;5.23;1.63;;;;;;;;;;4905094;29;20181;-84
2021/04/03 11:27:29;;;;;;;3.37;1.60;;;;;;;;;;4921247;29;20193;-83
2021/04/03 11:30:33;;;;;;;4.53;1.90;;;;;;;;;;4909212;29;20699;-84
2021/04/03 11:33:38;;;;;;;2.90;1.87;;;;;;;;;;4883407;29;20190;-83
2021/04/03 11:36:42;;;;;;;8.43;2.20;;;;;;;;;;4883189;29;20186;-84
2021/04/03 11:39:46;;;;;;;3.30;1.83;;;;;;;;;;4895917;29;20194;-84
2021/04/03 11:42:55;;;;;;;8.60;3.33;;;;;;;;;;4882603;29;20214;-84
2021/04/03 11:46:00;;;;;;;3.93;1.90;;;;;;;;;;4896134;29;20190;-85
2021/04/03 11:49:04;;;;;;;10.23;2.97;;;;;;;;;;4882604;29;20183;-85
2021/04/03 11:52:08;;;;;;;9.07;5.53;;;;;;;;;;4882040;29;20226;-85
2021/04/03 11:55:15;;;;;;;5.57;2.60;;;;;;;;;;4919285;29;20613;-85
2021/04/03 11:58:19;;;;;;;10.47;2.33;;;;;;;;;;4905373;29;20177;-85
2021/04/03 12:01:23;;;;;;;4.80;2.20;;;;;;;;;;4899768;29;20229;-85
2021/04/03 12:04:27;;;;;;;5.83;3.20;;;;;;;;;;4889369;29;20205;-84
2021/04/03 12:07:38;;;;;;;5.50;2.63;;;;;;;;;;4902751;29;20186;-85
2021/04/03 12:10:43;;;;;;;5.33;3.10;;;;;;;;;;4899627;29;20205;-86
2021/04/03 12:13:47;;;;;;;10.90;5.00;;;;;;;;;;4901024;29;20185;-83
2021/04/03 12:16:51;;;;;;;5.70;3.00;;;;;;;;;;4890428;29;20189;-88
2021/04/03 12:19:56;;;;;;;6.93;4.40;;;;;;;;;;4918803;29;20185;-83
2021/04/03 12:23:01;;;;;;;8.40;2.80;;;;;;;;;;4907808;29;20209;-83
2021/04/03 12:26:05;;;;;;;12.03;7.47;;;;;;;;;;4918476;29;20640;-83
2021/04/03 12:29:09;;;;;;;6.90;3.20;;;;;;;;;;4907295;29;20201;-83
2021/04/03 12:32:13;;;;;;;5.13;2.77;;;;;;;;;;4907392;29;20220;-83
2021/04/03 12:35:17;;;;;;;7.80;2.10;;;;;;;;;;4918570;29;20201;-83
2021/04/03 12:38:21;;;;;;;4.13;2.70;;;;;;;;;;4908291;29;20196;-83
2021/04/03 12:41:26;;;;;;;4.73;2.17;;;;;;;;;;4919440;29;20212;-83
2021/04/03 12:44:30;;;;;;;6.67;2.50;;;;;;;;;;4908192;29;20209;-83
2021/04/03 12:47:35;;;;;;;6.40;1.93;;;;;;;;;;4877627;29;20537;-83
2021/04/03 12:50:39;;;;;;;5.97;2.00;;;;;;;;;;4906833;29;20232;-83
2021/04/03 12:53:44;;;;;;;24.40;3.73;;;;;;;;;;4918860;29;20621;-83
2021/04/03 12:56:51;;;;;;;4.27;2.23;;;;;;;;;;4907688;29;20185;-83
2021/04/03 12:59:55;;;;;;;3.20;1.70;;;;;;;;;;4876785;29;20189;-83
2021/04/03 13:03:00;;;;;;;5.93;2.17;;;;;;;;;;4913280;29;20208;-83
2021/04/03 13:06:04;;;;;;;4.57;1.63;;;;;;;;;;4907589;29;20516;-83
2021/04/03 13:09:09;;;;;;;6.77;2.37;;;;;;;;;;4911691;29;20197;-83
2021/04/03 13:12:13;;;;;;;13.60;2.77;;;;;;;;;;4898123;29;20225;-83
2021/04/03 13:15:19;;;;;;;5.93;2.27;;;;;;;;;;4907136;29;20644;-83
2021/04/03 13:18:23;;;;;;;26.60;2.90;;;;;;;;;;4906938;29;20185;-84
2021/04/03 13:21:27;;;;;;;3.47;1.50;;;;;;;;;;4917312;29;20220;-85
2021/04/03 13:24:32;;;;;;;6.03;2.07;;;;;;;;;;4868897;29;20218;-83
2021/04/03 13:27:36;;;;;;;2.13;1.60;;;;;;;;;;4893111;29;20200;-84
2021/04/03 13:30:40;;;;;;;3.77;1.73;;;;;;;;;;4905898;29;20696;-84
2021/04/03 13:33:44;;;;;;;5.10;1.83;;;;;;;;;;4916802;29;20201;-84
2021/04/03 13:36:49;;;;;;;3.47;2.00;;;;;;;;;;4906450;29;20200;-83
2021/04/03 13:39:55;;;;;;;2.47;1.93;;;;;;;;;;4906528;29;20196;-83
2021/04/03 13:42:59;;;;;;;3.43;1.93;;;;;;;;;;4906495;29;20655;-83
2021/04/03 13:46:04;;;;;;;8.20;3.37;;;;;;;;;;4906781;29;20193;-83
2021/04/03 13:49:09;;;;;;;6.57;2.20;;;;;;;;;;4900351;29;20657;-83
2021/04/03 13:52:13;;;;;;;4.27;1.63;;;;;;;;;;4918151;29;20220;-83
2021/04/03 13:55:18;;;;;;;2.50;1.60;;;;;;;;;;4906675;29;20528;-83
2021/04/03 13:58:22;;;;;;;3.70;1.80;;;;;;;;;;4907198;29;20624;-83
2021/04/03 14:01:27;;;;;;;5.53;1.40;;;;;;;;;;4905649;29;20228;-84
2021/04/03 14:04:31;;;;;;;4.57;1.70;;;;;;;;;;4904802;29;20224;-84
2021/04/03 14:07:35;;;;;;;7.03;2.00;;;;;;;;;;4917827;29;20200;-83
2021/04/03 14:10:40;;;;;;;5.37;1.80;;;;;;;;;;4912896;29;20221;-83
2021/04/03 14:13:44;;;;;;;5.80;1.80;;;;;;;;;;4899699;29;20653;-83
2021/04/03 14:16:48;;;;;;;4.20;1.80;;;;;;;;;;4907592;29;20209;-84
2021/04/03 14:19:52;;;;;;;6.13;2.00;;;;;;;;;;4912638;29;20192;-84
2021/04/03 14:22:57;;;;;;;12.60;8.13;;;;;;;;;;4910207;29;20176;-89
2021/04/03 14:26:05;;;;;;;3.67;1.93;;;;;;;;;;4905181;29;20205;-89
2021/04/03 14:29:09;;;;;;;5.57;2.10;;;;;;;;;;4891948;29;20186;-85
2021/04/03 14:32:14;;;;;;;2.87;1.57;;;;;;;;;;4921811;29;20228;-86
2021/04/03 14:35:18;;;;;;;7.53;2.23;;;;;;;;;;4873802;29;20174;-85
2021/04/03 14:38:22;;;;;;;4.03;1.90;;;;;;;;;;4883353;29;20546;-86
2021/04/03 14:41:27;;;;;;;5.43;1.70;;;;;;;;;;4883276;29;20221;-86
2021/04/03 14:44:31;;;;;;;21.43;14.50;;;;;;;;;;4897425;29;20213;-86
2021/04/03 14:47:36;;;;;;;14.03;8.37;;;;;;;;;;4901782;29;20518;-86
2021/04/03 14:50:40;;;;;;;7.40;5.43;;;;;;;;;;4901170;29;20225;-86
2021/04/03 14:53:45;;;;;;;4.87;2.90;;;;;;;;;;4890217;29;20546;-86
2021/04/03 14:56:49;;;;;;;4.43;1.80;;;;;;;;;;4917504;29;20188;-86
2021/04/03 14:59:53;;;;;;;45.17;29.27;;;;;;;;;;4909542;29;20669;-86
2021/04/03 15:02:57;;;;;;;24.67;14.33;;;;;;;;;;4908688;29;20208;-85
2021/04/03 15:06:02;;;;;;;6.03;3.87;;;;;;;;;;4908456;29;20176;-86
2021/04/03 15:09:06;;;;;;;5.13;1.80;;;;;;;;;;4908300;29;20193;-86
2021/04/03 15:12:10;;;;;;;3.10;1.73;;;;;;;;;;4919221;29;20216;-85
2021/04/03 15:15:15;;;;;;;2.90;1.43;;;;;;;;;;4908589;29;20181;-85
2021/04/03 15:18:19;;;;;;;37.33;3.43;;;;;;;;;;4919103;29;20177;-88
2021/04/03 15:21:23;;;;;;;3.90;1.77;;;;;;;;;;4908692;29;20553;-88
2021/04/03 15:24:27;;;;;;;7.70;1.90;;;;;;;;;;4908680;29;20201;-88
2021/04/03 15:27:31;;;;;;;4.07;1.50;;;;;;;;;;4908415;29;20185;-88
2021/04/03 15:30:36;;;;;;;3.03;1.70;;;;;;;;;;4908441;29;20220;-88
2021/04/03 15:33:40;;;;;;;4.00;2.00;;;;;;;;;;4894738;29;20201;-87
2021/04/03 15:36:45;;;;;;;7.27;1.70;;;;;;;;;;4900526;29;20522;-88
2021/04/03 15:39:49;;;;;;;3.57;1.73;;;;;;;;;;4899856;29;20201;-86
2021/04/03 15:42:53;;;;;;;4.27;2.20;;;;;;;;;;4899699;29;20205;-89
2021/04/03 15:45:57;;;;;;;15.37;3.33;;;;;;;;;;4910176;29;20185;-89
2021/04/03 15:49:02;;;;;;;5.27;1.83;;;;;;;;;;4895374;29;20209;-89
2021/04/03 15:52:06;;;;;;;5.33;1.90;;;;;;;;;;4889167;29;20225;-89
2021/04/03 15:55:11;;;;;;;4.67;1.77;;;;;;;;;;4900086;29;20181;-88
2021/04/03 15:58:15;;;;;;;4.93;2.60;;;;;;;;;;4900056;29;20181;-89
2021/04/03 16:01:19;;;;;;;12.40;6.03;;;;;;;;;;4899671;29;20225;-89
2021/04/03 16:04:26;;;;;;;21.80;11.63;;;;;;;;;;4889002;29;20205;-89
2021/04/03 16:07:32;;;;;;;10.20;8.00;;;;;;;;;;4889082;29;20185;-88
2021/04/03 16:10:37;;;;;;;36.33;19.90;;;;;;;;;;4888674;29;20221;-88
2021/04/03 16:13:42;;;;;;;59.07;32.10;;;;;;;;;;4888754;29;20197;-87
2021/04/03 16:16:46;;;;;;;60.60;32.43;;;;;;;;;;4900646;29;20205;-87
2021/04/03 16:19:50;;;;;;;67.43;32.27;;;;;;;;;;4901833;29;20217;-87
2021/04/03 16:22:55;;;;;;;31.73;16.80;;;;;;;;;;4901069;29;20193;-87
2021/04/03 16:25:59;;;;;;;17.30;8.20;;;;;;;;;;4888637;29;20192;-87
2021/04/03 16:29:04;;;;;;;17.90;9.00;;;;;;;;;;4888879;29;20186;-88
2021/04/03 16:32:08;;;;;;;8.40;4.07;;;;;;;;;;4899488;29;20221;-89
2021/04/03 16:35:12;;;;;;;8.33;3.40;;;;;;;;;;4902408;29;20189;-89
2021/04/03 16:38:22;;;;;;;8.53;2.60;;;;;;;;;;4904043;29;20193;-89
2021/04/03 16:41:27;;;;;;;3.53;1.90;;;;;;;;;;4888774;29;20217;-89
2021/04/03 16:44:31;;;;;;;8.63;2.40;;;;;;;;;;4896227;29;20589;-88
2021/04/03 16:47:35;;;;;;;6.77;3.10;;;;;;;;;;4898851;29;20205;-86
2021/04/03 16:50:39;;;;;;;4.17;2.77;;;;;;;;;;4888463;29;20225;-87
2021/04/03 16:53:43;;;;;;;4.03;2.17;;;;;;;;;;4899888;29;20201;-87
2021/04/03 16:56:48;;;;;;;7.50;4.80;;;;;;;;;;4888826;29;20201;-88
2021/04/03 16:59:52;;;;;;;9.63;5.10;;;;;;;;;;4888612;29;20198;-88
2021/04/03 17:02:56;;;;;;;4.97;3.07;;;;;;;;;;4899568;29;20669;-88
2021/04/03 17:06:01;;;;;;;6.10;3.50;;;;;;;;;;4899194;29;20209;-89
2021/04/03 17:09:06;;;;;;;6.83;2.23;;;;;;;;;;4898442;29;20589;-88
2021/04/03 17:12:10;;;;;;;3.47;2.37;;;;;;;;;;4898743;29;20221;-88
2021/04/03 17:15:17;;;;;;;5.87;2.37;;;;;;;;;;4898465;29;20174;-89
2021/04/03 17:18:21;;;;;;;8.17;2.87;;;;;;;;;;4887995;29;20186;-89
2021/04/03 17:21:26;;;;;;;6.10;2.30;;;;;;;;;;4887959;29;20579;-89
2021/04/03 17:24:30;;;;;;;57.03;9.13;;;;;;;;;;4888140;29;20213;-89
2021/04/03 17:27:34;;;;;;;15.00;6.50;;;;;;;;;;4898049;29;20205;-89
2021/04/03 17:30:38;;;;;;;11.20;4.20;;;;;;;;;;4887701;29;20217;-89
2021/04/03 17:33:43;;;;;;;18.30;6.70;;;;;;;;;;4878246;29;20190;-89
2021/04/03 17:36:47;;;;;;;7.27;4.47;;;;;;;;;;4897980;29;20206;-89
2021/04/03 17:39:52;;;;;;;5.03;2.90;;;;;;;;;;4887667;29;20189;-89
2021/04/03 17:42:56;;;;;;;4.70;2.37;;;;;;;;;;4887457;29;20182;-89
2021/04/03 17:46:00;;;;;;;5.57;2.00;;;;;;;;;;4877082;29;20209;-89
2021/04/03 17:49:05;;;;;;;4.60;1.30;;;;;;;;;;4889850;29;20189;-88
2021/04/03 17:52:09;;;;;;;3.83;1.70;;;;;;;;;;4903060;29;20220;-89
2021/04/03 17:55:14;;;;;;;3.10;1.50;;;;;;;;;;4903432;29;20181;-89
2021/04/03 17:58:18;;;;;;;2.83;1.80;;;;;;;;;;4892203;29;20188;-89
2021/04/03 18:01:23;;;;;;;4.10;1.70;;;;;;;;;;4902222;29;20233;-88
2021/04/03 18:04:28;;;;;;;6.40;2.10;;;;;;;;;;4915944;29;20216;-88
2021/04/03 18:07:32;;;;;;;4.43;1.77;;;;;;;;;;4902736;29;20201;-88
2021/04/03 18:10:37;;;;;;;4.27;1.80;;;;;;;;;;4901588;29;20217;-90
2021/04/03 18:13:43;;;;;;;6.00;2.13;;;;;;;;;;4882500;29;20181;-89
2021/04/03 18:16:47;;;;;;;3.57;1.90;;;;;;;;;;4903152;29;20201;-91
2021/04/03 18:19:52;;;;;;;3.00;1.80;;;;;;;;;;4881456;29;20182;-88
2021/04/03 18:22:58;;;;;;;4.20;2.00;;;;;;;;;;4892605;29;20193;-89
2021/04/03 18:26:03;;;;;;;4.83;1.63;;;;;;;;;;4878436;29;20665;-89
2021/04/03 18:29:09;;;;;;;4.30;1.87;;;;;;;;;;4886988;29;20190;-88
2021/04/03 18:32:14;;;;;;;6.43;1.87;;;;;;;;;;4897604;29;20217;-89
2021/04/03 18:35:18;;;;;;;2.77;1.70;;;;;;;;;;4897214;29;20197;-89
2021/04/03 18:38:22;;;;;;;5.37;1.93;;;;;;;;;;4886881;29;20186;-89